sensor_id;sensor_type;location;lat;lon;timestamp;P1;durP1;ratioP1;P2;durP2;ratioP2
23517;SDS011;11935;50.878;4.392;2022-11-15T00:02:12;24.38;;;16.88;;
23517;SDS011;11935;50.878;4.392;2022-11-15T00:04:38;28.27;;;17.23;;
23517;SDS011;11935;50.878;4.392;2022-11-15T00:07:04;26.65;;;18.63;;
23517;SDS011;11935;50.878;4.392;2022-11-15T00:09:30;27.02;;;18.10;;
23517;SDS011;11935;50.878;4.392;2022-11-15T00:11:56;26.73;;;17.25;;
23517;SDS011;11935;50.878;4.392;2022-11-15T00:14:22;27.52;;;18.05;;
23517;SDS011;11935;50.878;4.392;2022-11-15T00:16:48;27.10;;;18.27;;
23517;SDS011;11935;50.878;4.392;2022-11-15T00:19:14;27.23;;;18.15;;
23517;SDS011;11935;50.878;4.392;2022-11-15T00:21:41;29.95;;;18.92;;
23517;SDS011;11935;50.878;4.392;2022-11-15T00:24:07;28.80;;;18.38;;
23517;SDS011;11935;50.878;4.392;2022-11-15T00:26:33;29.27;;;18.50;;
23517;SDS011;11935;50.878;4.392;2022-11-15T00:28:59;28.13;;;17.63;;
23517;SDS011;11935;50.878;4.392;2022-11-15T00:31:25;26.00;;;18.52;;
23517;SDS011;11935;50.878;4.392;2022-11-15T00:33:51;26.17;;;19.70;;
23517;SDS011;11935;50.878;4.392;2022-11-15T00:36:17;28.98;;;19.15;;
23517;SDS011;11935;50.878;4.392;2022-11-15T00:38:43;26.27;;;18.73;;
23517;SDS011;11935;50.878;4.392;2022-11-15T00:41:09;28.02;;;19.00;;
23517;SDS011;11935;50.878;4.392;2022-11-15T00:43:35;29.33;;;19.60;;
23517;SDS011;11935;50.878;4.392;2022-11-15T00:46:01;26.40;;;18.40;;
23517;SDS011;11935;50.878;4.392;2022-11-15T00:48:27;27.58;;;17.90;;
23517;SDS011;11935;50.878;4.392;2022-11-15T00:50:54;26.75;;;17.83;;
23517;SDS011;11935;50.878;4.392;2022-11-15T00:53:20;27.98;;;17.45;;
23517;SDS011;11935;50.878;4.392;2022-11-15T00:55:46;28.67;;;18.10;;
23517;SDS011;11935;50.878;4.392;2022-11-15T00:58:12;29.52;;;18.60;;
23517;SDS011;11935;50.878;4.392;2022-11-15T01:00:38;23.60;;;17.17;;
23517;SDS011;11935;50.878;4.392;2022-11-15T01:03:04;27.48;;;18.27;;
23517;SDS011;11935;50.878;4.392;2022-11-15T01:05:30;29.45;;;18.38;;
23517;SDS011;11935;50.878;4.392;2022-11-15T01:07:56;28.08;;;20.05;;
23517;SDS011;11935;50.878;4.392;2022-11-15T01:10:22;28.75;;;19.95;;
23517;SDS011;11935;50.878;4.392;2022-11-15T01:12:48;29.52;;;19.88;;
23517;SDS011;11935;50.878;4.392;2022-11-15T01:15:15;24.92;;;17.65;;
23517;SDS011;11935;50.878;4.392;2022-11-15T01:17:41;28.95;;;20.25;;
23517;SDS011;11935;50.878;4.392;2022-11-15T01:20:07;30.10;;;20.92;;
23517;SDS011;11935;50.878;4.392;2022-11-15T01:22:34;28.63;;;18.98;;
23517;SDS011;11935;50.878;4.392;2022-11-15T01:25:00;29.85;;;18.25;;
23517;SDS011;11935;50.878;4.392;2022-11-15T01:27:26;27.75;;;19.88;;
23517;SDS011;11935;50.878;4.392;2022-11-15T01:29:52;26.02;;;19.15;;
23517;SDS011;11935;50.878;4.392;2022-11-15T01:32:18;26.45;;;18.05;;
23517;SDS011;11935;50.878;4.392;2022-11-15T01:34:44;29.92;;;18.95;;
23517;SDS011;11935;50.878;4.392;2022-11-15T01:37:10;26.42;;;18.27;;
23517;SDS011;11935;50.878;4.392;2022-11-15T01:39:36;26.48;;;19.77;;
23517;SDS011;11935;50.878;4.392;2022-11-15T01:42:02;28.00;;;19.60;;
23517;SDS011;11935;50.878;4.392;2022-11-15T01:47:07;29.75;;;18.27;;
23517;SDS011;11935;50.878;4.392;2022-11-15T01:49:35;31.08;;;17.50;;
23517;SDS011;11935;50.878;4.392;2022-11-15T01:52:03;31.33;;;17.88;;
23517;SDS011;11935;50.878;4.392;2022-11-15T01:54:29;24.52;;;16.05;;
23517;SDS011;11935;50.878;4.392;2022-11-15T01:56:57;24.50;;;16.23;;
23517;SDS011;11935;50.878;4.392;2022-11-15T01:59:25;21.25;;;15.82;;
23517;SDS011;11935;50.878;4.392;2022-11-15T02:01:51;23.83;;;17.13;;
23517;SDS011;11935;50.878;4.392;2022-11-15T02:04:22;19.40;;;15.52;;
23517;SDS011;11935;50.878;4.392;2022-11-15T02:06:49;22.73;;;16.35;;
23517;SDS011;11935;50.878;4.392;2022-11-15T02:09:16;27.00;;;16.35;;
23517;SDS011;11935;50.878;4.392;2022-11-15T02:11:42;23.33;;;14.93;;
23517;SDS011;11935;50.878;4.392;2022-11-15T02:14:09;31.92;;;17.10;;
23517;SDS011;11935;50.878;4.392;2022-11-15T02:16:42;23.23;;;16.17;;
23517;SDS011;11935;50.878;4.392;2022-11-15T02:32:45;23.92;;;17.25;;
23517;SDS011;11935;50.878;4.392;2022-11-15T02:35:26;24.50;;;17.88;;
23517;SDS011;11935;50.878;4.392;2022-11-15T02:37:58;22.52;;;15.45;;
23517;SDS011;11935;50.878;4.392;2022-11-15T02:40:48;26.50;;;16.88;;
23517;SDS011;11935;50.878;4.392;2022-11-15T02:43:12;21.95;;;15.43;;
23517;SDS011;11935;50.878;4.392;2022-11-15T02:46:00;23.77;;;15.45;;
23517;SDS011;11935;50.878;4.392;2022-11-15T02:48:27;21.67;;;15.07;;
23517;SDS011;11935;50.878;4.392;2022-11-15T02:50:54;23.88;;;15.95;;
23517;SDS011;11935;50.878;4.392;2022-11-15T02:53:24;25.88;;;15.95;;
23517;SDS011;11935;50.878;4.392;2022-11-15T02:55:50;24.90;;;15.55;;
23517;SDS011;11935;50.878;4.392;2022-11-15T03:01:08;19.20;;;13.60;;
23517;SDS011;11935;50.878;4.392;2022-11-15T03:09:03;17.98;;;13.90;;
23517;SDS011;11935;50.878;4.392;2022-11-15T03:11:32;22.85;;;13.32;;
23517;SDS011;11935;50.878;4.392;2022-11-15T03:16:37;20.85;;;11.50;;
23517;SDS011;11935;50.878;4.392;2022-11-15T03:19:12;18.05;;;11.10;;
23517;SDS011;11935;50.878;4.392;2022-11-15T03:21:42;21.50;;;11.68;;
23517;SDS011;11935;50.878;4.392;2022-11-15T03:24:09;17.92;;;10.85;;
23517;SDS011;11935;50.878;4.392;2022-11-15T03:26:38;15.75;;;9.73;;
23517;SDS011;11935;50.878;4.392;2022-11-15T03:29:10;16.90;;;10.18;;
23517;SDS011;11935;50.878;4.392;2022-11-15T03:31:38;16.98;;;10.18;;
23517;SDS011;11935;50.878;4.392;2022-11-15T03:34:14;19.30;;;9.38;;
23517;SDS011;11935;50.878;4.392;2022-11-15T03:36:41;14.10;;;8.70;;
23517;SDS011;11935;50.878;4.392;2022-11-15T03:39:08;16.95;;;9.45;;
23517;SDS011;11935;50.878;4.392;2022-11-15T03:41:39;13.70;;;8.77;;
23517;SDS011;11935;50.878;4.392;2022-11-15T03:44:14;11.75;;;8.40;;
23517;SDS011;11935;50.878;4.392;2022-11-15T03:46:50;13.70;;;8.55;;
23517;SDS011;11935;50.878;4.392;2022-11-15T03:49:29;19.20;;;8.70;;
23517;SDS011;11935;50.878;4.392;2022-11-15T03:51:57;12.88;;;8.20;;
23517;SDS011;11935;50.878;4.392;2022-11-15T03:54:24;15.60;;;8.50;;
23517;SDS011;11935;50.878;4.392;2022-11-15T03:56:50;13.07;;;8.30;;
23517;SDS011;11935;50.878;4.392;2022-11-15T03:59:16;13.23;;;8.40;;
23517;SDS011;11935;50.878;4.392;2022-11-15T04:01:42;14.13;;;8.13;;
23517;SDS011;11935;50.878;4.392;2022-11-15T04:04:08;17.05;;;8.07;;
23517;SDS011;11935;50.878;4.392;2022-11-15T04:06:34;14.07;;;8.20;;
23517;SDS011;11935;50.878;4.392;2022-11-15T04:09:00;12.45;;;8.27;;
23517;SDS011;11935;50.878;4.392;2022-11-15T04:11:26;17.27;;;8.13;;
23517;SDS011;11935;50.878;4.392;2022-11-15T04:13:52;10.88;;;7.40;;
23517;SDS011;11935;50.878;4.392;2022-11-15T04:16:18;11.15;;;7.13;;
23517;SDS011;11935;50.878;4.392;2022-11-15T04:18:44;11.50;;;6.22;;
23517;SDS011;11935;50.878;4.392;2022-11-15T04:21:30;9.82;;;6.43;;
23517;SDS011;11935;50.878;4.392;2022-11-15T04:24:14;11.25;;;7.20;;
23517;SDS011;11935;50.878;4.392;2022-11-15T04:26:40;12.60;;;6.55;;
23517;SDS011;11935;50.878;4.392;2022-11-15T04:29:07;11.70;;;6.97;;
23517;SDS011;11935;50.878;4.392;2022-11-15T04:31:51;12.00;;;7.75;;
23517;SDS011;11935;50.878;4.392;2022-11-15T04:34:17;11.27;;;6.28;;
23517;SDS011;11935;50.878;4.392;2022-11-15T04:36:43;12.10;;;6.22;;
23517;SDS011;11935;50.878;4.392;2022-11-15T04:39:28;7.63;;;5.85;;
23517;SDS011;11935;50.878;4.392;2022-11-15T04:41:53;11.55;;;6.05;;
23517;SDS011;11935;50.878;4.392;2022-11-15T04:44:19;10.18;;;5.57;;
23517;SDS011;11935;50.878;4.392;2022-11-15T04:46:45;8.63;;;6.03;;
23517;SDS011;11935;50.878;4.392;2022-11-15T04:49:11;11.40;;;5.40;;
23517;SDS011;11935;50.878;4.392;2022-11-15T04:51:37;9.63;;;5.65;;
23517;SDS011;11935;50.878;4.392;2022-11-15T04:54:03;11.55;;;6.05;;
23517;SDS011;11935;50.878;4.392;2022-11-15T04:56:29;8.52;;;5.50;;
23517;SDS011;11935;50.878;4.392;2022-11-15T04:58:55;9.88;;;5.60;;
23517;SDS011;11935;50.878;4.392;2022-11-15T05:01:21;12.60;;;5.50;;
23517;SDS011;11935;50.878;4.392;2022-11-15T05:03:47;12.75;;;5.38;;
23517;SDS011;11935;50.878;4.392;2022-11-15T05:06:32;8.38;;;5.47;;
23517;SDS011;11935;50.878;4.392;2022-11-15T05:08:58;10.90;;;5.03;;
23517;SDS011;11935;50.878;4.392;2022-11-15T05:11:24;13.00;;;5.80;;
23517;SDS011;11935;50.878;4.392;2022-11-15T05:13:52;8.30;;;4.70;;
23517;SDS011;11935;50.878;4.392;2022-11-15T05:16:18;8.07;;;4.93;;
23517;SDS011;11935;50.878;4.392;2022-11-15T05:18:44;13.43;;;5.38;;
23517;SDS011;11935;50.878;4.392;2022-11-15T05:21:11;9.15;;;5.28;;
23517;SDS011;11935;50.878;4.392;2022-11-15T05:23:38;14.18;;;5.13;;
23517;SDS011;11935;50.878;4.392;2022-11-15T05:26:05;9.73;;;4.60;;
23517;SDS011;11935;50.878;4.392;2022-11-15T05:28:31;11.70;;;5.30;;
23517;SDS011;11935;50.878;4.392;2022-11-15T05:31:01;13.52;;;4.70;;
23517;SDS011;11935;50.878;4.392;2022-11-15T05:33:27;10.05;;;4.22;;
23517;SDS011;11935;50.878;4.392;2022-11-15T05:36:03;12.63;;;4.28;;
23517;SDS011;11935;50.878;4.392;2022-11-15T05:38:30;8.43;;;4.10;;
23517;SDS011;11935;50.878;4.392;2022-11-15T05:40:56;7.88;;;3.72;;
23517;SDS011;11935;50.878;4.392;2022-11-15T05:43:22;7.03;;;4.22;;
23517;SDS011;11935;50.878;4.392;2022-11-15T05:45:48;7.55;;;3.03;;
23517;SDS011;11935;50.878;4.392;2022-11-15T05:48:14;7.63;;;3.55;;
23517;SDS011;11935;50.878;4.392;2022-11-15T05:50:41;6.50;;;3.65;;
23517;SDS011;11935;50.878;4.392;2022-11-15T05:53:08;9.52;;;4.65;;
23517;SDS011;11935;50.878;4.392;2022-11-15T05:55:35;11.25;;;4.57;;
23517;SDS011;11935;50.878;4.392;2022-11-15T05:58:03;8.15;;;3.75;;
23517;SDS011;11935;50.878;4.392;2022-11-15T06:00:28;14.60;;;4.18;;
23517;SDS011;11935;50.878;4.392;2022-11-15T06:02:55;7.32;;;3.95;;
23517;SDS011;11935;50.878;4.392;2022-11-15T06:05:21;11.60;;;3.90;;
23517;SDS011;11935;50.878;4.392;2022-11-15T06:07:46;10.15;;;4.13;;
23517;SDS011;11935;50.878;4.392;2022-11-15T06:10:12;11.60;;;4.93;;
23517;SDS011;11935;50.878;4.392;2022-11-15T06:12:39;8.63;;;4.38;;
23517;SDS011;11935;50.878;4.392;2022-11-15T06:15:05;10.63;;;4.32;;
23517;SDS011;11935;50.878;4.392;2022-11-15T06:17:31;9.85;;;4.20;;
23517;SDS011;11935;50.878;4.392;2022-11-15T06:19:57;8.35;;;4.00;;
23517;SDS011;11935;50.878;4.392;2022-11-15T06:22:23;11.27;;;4.22;;
23517;SDS011;11935;50.878;4.392;2022-11-15T06:24:49;10.55;;;3.90;;
23517;SDS011;11935;50.878;4.392;2022-11-15T06:27:15;8.48;;;5.00;;
23517;SDS011;11935;50.878;4.392;2022-11-15T06:29:41;13.27;;;5.05;;
23517;SDS011;11935;50.878;4.392;2022-11-15T06:32:07;8.27;;;4.30;;
23517;SDS011;11935;50.878;4.392;2022-11-15T06:34:33;10.02;;;4.70;;
23517;SDS011;11935;50.878;4.392;2022-11-15T06:37:00;9.27;;;5.20;;
23517;SDS011;11935;50.878;4.392;2022-11-15T06:39:26;9.52;;;4.30;;
23517;SDS011;11935;50.878;4.392;2022-11-15T06:41:52;8.15;;;3.78;;
23517;SDS011;11935;50.878;4.392;2022-11-15T06:44:18;9.13;;;4.22;;
23517;SDS011;11935;50.878;4.392;2022-11-15T06:46:44;7.82;;;3.92;;
23517;SDS011;11935;50.878;4.392;2022-11-15T06:49:10;8.50;;;4.50;;
23517;SDS011;11935;50.878;4.392;2022-11-15T06:51:37;10.93;;;4.65;;
23517;SDS011;11935;50.878;4.392;2022-11-15T06:54:03;17.58;;;4.85;;
23517;SDS011;11935;50.878;4.392;2022-11-15T06:56:29;11.57;;;4.22;;
23517;SDS011;11935;50.878;4.392;2022-11-15T06:58:55;8.00;;;4.57;;
23517;SDS011;11935;50.878;4.392;2022-11-15T07:01:21;10.05;;;4.35;;
23517;SDS011;11935;50.878;4.392;2022-11-15T07:03:47;11.02;;;5.05;;
23517;SDS011;11935;50.878;4.392;2022-11-15T07:06:13;9.25;;;4.03;;
23517;SDS011;11935;50.878;4.392;2022-11-15T07:08:39;7.20;;;4.20;;
23517;SDS011;11935;50.878;4.392;2022-11-15T07:11:06;11.33;;;4.70;;
23517;SDS011;11935;50.878;4.392;2022-11-15T07:13:33;10.35;;;5.47;;
23517;SDS011;11935;50.878;4.392;2022-11-15T07:16:06;10.98;;;5.93;;
23517;SDS011;11935;50.878;4.392;2022-11-15T07:18:36;14.38;;;6.85;;
23517;SDS011;11935;50.878;4.392;2022-11-15T07:21:06;18.25;;;6.07;;
23517;SDS011;11935;50.878;4.392;2022-11-15T07:23:33;18.02;;;7.68;;
23517;SDS011;11935;50.878;4.392;2022-11-15T07:26:01;14.80;;;5.65;;
23517;SDS011;11935;50.878;4.392;2022-11-15T07:28:27;10.38;;;5.13;;
23517;SDS011;11935;50.878;4.392;2022-11-15T07:30:53;9.10;;;3.97;;
23517;SDS011;11935;50.878;4.392;2022-11-15T07:33:19;8.02;;;4.68;;
23517;SDS011;11935;50.878;4.392;2022-11-15T07:35:46;13.93;;;5.55;;
23517;SDS011;11935;50.878;4.392;2022-11-15T07:38:15;10.15;;;4.88;;
23517;SDS011;11935;50.878;4.392;2022-11-15T07:40:44;6.30;;;4.25;;
23517;SDS011;11935;50.878;4.392;2022-11-15T07:43:10;7.40;;;3.80;;
23517;SDS011;11935;50.878;4.392;2022-11-15T07:45:40;9.10;;;4.07;;
23517;SDS011;11935;50.878;4.392;2022-11-15T07:48:06;7.93;;;3.65;;
23517;SDS011;11935;50.878;4.392;2022-11-15T07:50:32;5.50;;;3.80;;
23517;SDS011;11935;50.878;4.392;2022-11-15T07:52:59;11.98;;;3.65;;
23517;SDS011;11935;50.878;4.392;2022-11-15T07:55:26;5.25;;;2.47;;
23517;SDS011;11935;50.878;4.392;2022-11-15T07:57:53;5.10;;;2.90;;
23517;SDS011;11935;50.878;4.392;2022-11-15T08:00:19;3.88;;;2.50;;
23517;SDS011;11935;50.878;4.392;2022-11-15T08:02:45;5.03;;;2.92;;
23517;SDS011;11935;50.878;4.392;2022-11-15T08:05:11;6.53;;;3.30;;
23517;SDS011;11935;50.878;4.392;2022-11-15T08:07:38;7.15;;;2.80;;
23517;SDS011;11935;50.878;4.392;2022-11-15T08:10:05;7.35;;;4.00;;
23517;SDS011;11935;50.878;4.392;2022-11-15T08:12:32;5.47;;;3.40;;
23517;SDS011;11935;50.878;4.392;2022-11-15T08:14:59;6.15;;;3.78;;
23517;SDS011;11935;50.878;4.392;2022-11-15T08:17:25;6.03;;;3.42;;
23517;SDS011;11935;50.878;4.392;2022-11-15T08:19:51;8.88;;;3.28;;
23517;SDS011;11935;50.878;4.392;2022-11-15T08:22:17;6.78;;;3.00;;
23517;SDS011;11935;50.878;4.392;2022-11-15T08:24:43;5.93;;;3.58;;
23517;SDS011;11935;50.878;4.392;2022-11-15T08:27:09;7.63;;;2.95;;
23517;SDS011;11935;50.878;4.392;2022-11-15T08:29:42;3.15;;;2.40;;
23517;SDS011;11935;50.878;4.392;2022-11-15T08:32:09;5.25;;;2.45;;
23517;SDS011;11935;50.878;4.392;2022-11-15T08:34:35;4.50;;;1.63;;
23517;SDS011;11935;50.878;4.392;2022-11-15T08:37:01;6.15;;;2.40;;
23517;SDS011;11935;50.878;4.392;2022-11-15T08:39:27;6.90;;;2.65;;
23517;SDS011;11935;50.878;4.392;2022-11-15T08:41:53;4.30;;;1.48;;
23517;SDS011;11935;50.878;4.392;2022-11-15T08:44:19;6.53;;;1.83;;
23517;SDS011;11935;50.878;4.392;2022-11-15T08:46:46;5.35;;;1.85;;
23517;SDS011;11935;50.878;4.392;2022-11-15T08:49:12;6.05;;;1.88;;
23517;SDS011;11935;50.878;4.392;2022-11-15T08:51:38;5.95;;;1.67;;
23517;SDS011;11935;50.878;4.392;2022-11-15T08:54:04;4.82;;;2.03;;
23517;SDS011;11935;50.878;4.392;2022-11-15T08:56:30;6.32;;;1.90;;
23517;SDS011;11935;50.878;4.392;2022-11-15T08:58:56;4.18;;;1.45;;
23517;SDS011;11935;50.878;4.392;2022-11-15T09:01:22;7.15;;;1.95;;
23517;SDS011;11935;50.878;4.392;2022-11-15T09:03:48;7.18;;;2.47;;
23517;SDS011;11935;50.878;4.392;2022-11-15T09:06:14;7.38;;;2.72;;
23517;SDS011;11935;50.878;4.392;2022-11-15T09:08:40;6.10;;;2.05;;
23517;SDS011;11935;50.878;4.392;2022-11-15T09:11:07;6.65;;;1.55;;
23517;SDS011;11935;50.878;4.392;2022-11-15T09:13:33;7.63;;;2.13;;
23517;SDS011;11935;50.878;4.392;2022-11-15T09:16:01;3.58;;;1.40;;
23517;SDS011;11935;50.878;4.392;2022-11-15T09:18:28;9.05;;;1.98;;
23517;SDS011;11935;50.878;4.392;2022-11-15T09:20:57;3.70;;;1.40;;
23517;SDS011;11935;50.878;4.392;2022-11-15T09:23:23;8.68;;;1.75;;
23517;SDS011;11935;50.878;4.392;2022-11-15T09:25:49;6.75;;;1.75;;
23517;SDS011;11935;50.878;4.392;2022-11-15T09:28:16;5.57;;;1.55;;
23517;SDS011;11935;50.878;4.392;2022-11-15T09:30:42;4.13;;;1.63;;
23517;SDS011;11935;50.878;4.392;2022-11-15T09:33:08;8.88;;;2.13;;
23517;SDS011;11935;50.878;4.392;2022-11-15T09:35:34;8.25;;;4.13;;
23517;SDS011;11935;50.878;4.392;2022-11-15T09:38:01;5.80;;;1.20;;
23517;SDS011;11935;50.878;4.392;2022-11-15T09:40:27;8.00;;;1.70;;
23517;SDS011;11935;50.878;4.392;2022-11-15T09:48:05;5.10;;;1.50;;
23517;SDS011;11935;50.878;4.392;2022-11-15T09:51:08;5.28;;;1.65;;
23517;SDS011;11935;50.878;4.392;2022-11-15T09:53:36;12.13;;;1.83;;
23517;SDS011;11935;50.878;4.392;2022-11-15T09:56:14;6.68;;;1.20;;
23517;SDS011;11935;50.878;4.392;2022-11-15T09:58:48;7.22;;;1.50;;
23517;SDS011;11935;50.878;4.392;2022-11-15T10:01:20;5.72;;;2.08;;
23517;SDS011;11935;50.878;4.392;2022-11-15T10:03:48;6.53;;;1.50;;
23517;SDS011;11935;50.878;4.392;2022-11-15T10:06:19;9.05;;;1.60;;
23517;SDS011;11935;50.878;4.392;2022-11-15T10:11:23;5.57;;;1.48;;
23517;SDS011;11935;50.878;4.392;2022-11-15T10:13:50;3.53;;;1.00;;
23517;SDS011;11935;50.878;4.392;2022-11-15T10:21:32;2.55;;;1.05;;
23517;SDS011;11935;50.878;4.392;2022-11-15T10:24:10;5.30;;;1.48;;
23517;SDS011;11935;50.878;4.392;2022-11-15T10:26:36;5.85;;;1.70;;
23517;SDS011;11935;50.878;4.392;2022-11-15T10:29:02;6.07;;;1.35;;
23517;SDS011;11935;50.878;4.392;2022-11-15T10:31:28;5.35;;;1.30;;
23517;SDS011;11935;50.878;4.392;2022-11-15T10:34:11;7.32;;;0.98;;
23517;SDS011;11935;50.878;4.392;2022-11-15T10:36:43;10.68;;;1.33;;
23517;SDS011;11935;50.878;4.392;2022-11-15T10:39:11;6.28;;;1.30;;
23517;SDS011;11935;50.878;4.392;2022-11-15T10:41:38;7.33;;;1.20;;
23517;SDS011;11935;50.878;4.392;2022-11-15T10:46:44;4.20;;;1.00;;
23517;SDS011;11935;50.878;4.392;2022-11-15T10:52:27;5.05;;;1.02;;
23517;SDS011;11935;50.878;4.392;2022-11-15T10:54:51;5.25;;;1.15;;
23517;SDS011;11935;50.878;4.392;2022-11-15T10:57:28;6.20;;;0.90;;
23517;SDS011;11935;50.878;4.392;2022-11-15T10:59:55;11.00;;;1.50;;
23517;SDS011;11935;50.878;4.392;2022-11-15T11:04:51;9.52;;;1.10;;
23517;SDS011;11935;50.878;4.392;2022-11-15T11:07:22;4.45;;;1.20;;
23517;SDS011;11935;50.878;4.392;2022-11-15T11:09:56;7.70;;;1.58;;
23517;SDS011;11935;50.878;4.392;2022-11-15T11:12:26;8.43;;;1.83;;
23517;SDS011;11935;50.878;4.392;2022-11-15T11:14:54;7.70;;;2.00;;
23517;SDS011;11935;50.878;4.392;2022-11-15T11:22:22;4.32;;;1.40;;
23517;SDS011;11935;50.878;4.392;2022-11-15T11:30:07;4.85;;;1.40;;
23517;SDS011;11935;50.878;4.392;2022-11-15T11:33:02;4.28;;;0.80;;
23517;SDS011;11935;50.878;4.392;2022-11-15T11:35:32;16.85;;;1.10;;
23517;SDS011;11935;50.878;4.392;2022-11-15T11:40:38;5.60;;;1.42;;
23517;SDS011;11935;50.878;4.392;2022-11-15T11:50:37;3.25;;;0.95;;
23517;SDS011;11935;50.878;4.392;2022-11-15T11:55:56;6.05;;;1.02;;
23517;SDS011;11935;50.878;4.392;2022-11-15T12:03:38;4.45;;;0.95;;
23517;SDS011;11935;50.878;4.392;2022-11-15T12:08:46;5.43;;;1.58;;
23517;SDS011;11935;50.878;4.392;2022-11-15T12:11:14;4.53;;;1.05;;
23517;SDS011;11935;50.878;4.392;2022-11-15T12:14:03;4.82;;;1.08;;
23517;SDS011;11935;50.878;4.392;2022-11-15T12:16:34;5.30;;;1.63;;
23517;SDS011;11935;50.878;4.392;2022-11-15T12:19:01;5.50;;;1.33;;
23517;SDS011;11935;50.878;4.392;2022-11-15T12:24:25;4.88;;;1.08;;
23517;SDS011;11935;50.878;4.392;2022-11-15T12:31:52;5.35;;;1.50;;
23517;SDS011;11935;50.878;4.392;2022-11-15T12:36:48;1.75;;;0.98;;
23517;SDS011;11935;50.878;4.392;2022-11-15T12:39:15;2.92;;;1.05;;
23517;SDS011;11935;50.878;4.392;2022-11-15T12:41:42;5.82;;;1.08;;
23517;SDS011;11935;50.878;4.392;2022-11-15T12:44:12;3.53;;;1.20;;
23517;SDS011;11935;50.878;4.392;2022-11-15T12:49:41;5.68;;;1.05;;
23517;SDS011;11935;50.878;4.392;2022-11-15T13:02:21;5.70;;;0.95;;
23517;SDS011;11935;50.878;4.392;2022-11-15T13:04:48;6.22;;;1.08;;
23517;SDS011;11935;50.878;4.392;2022-11-15T13:12:50;3.45;;;1.40;;
23517;SDS011;11935;50.878;4.392;2022-11-15T13:17:57;6.30;;;1.45;;
23517;SDS011;11935;50.878;4.392;2022-11-15T13:20:31;3.45;;;1.00;;
23517;SDS011;11935;50.878;4.392;2022-11-15T13:27:53;4.03;;;1.35;;
23517;SDS011;11935;50.878;4.392;2022-11-15T13:30:23;4.43;;;1.10;;
23517;SDS011;11935;50.878;4.392;2022-11-15T13:32:49;2.40;;;1.00;;
23517;SDS011;11935;50.878;4.392;2022-11-15T13:35:20;5.30;;;1.08;;
23517;SDS011;11935;50.878;4.392;2022-11-15T13:37:46;4.60;;;1.00;;
23517;SDS011;11935;50.878;4.392;2022-11-15T13:40:19;3.38;;;0.90;;
23517;SDS011;11935;50.878;4.392;2022-11-15T13:42:45;2.53;;;0.90;;
23517;SDS011;11935;50.878;4.392;2022-11-15T13:45:13;3.63;;;1.00;;
23517;SDS011;11935;50.878;4.392;2022-11-15T13:50:09;4.07;;;1.10;;
23517;SDS011;11935;50.878;4.392;2022-11-15T13:52:36;3.90;;;1.20;;
23517;SDS011;11935;50.878;4.392;2022-11-15T13:55:14;1.48;;;0.93;;
23517;SDS011;11935;50.878;4.392;2022-11-15T13:57:46;4.40;;;0.85;;
23517;SDS011;11935;50.878;4.392;2022-11-15T14:00:33;2.42;;;0.77;;
23517;SDS011;11935;50.878;4.392;2022-11-15T14:03:19;2.30;;;1.00;;
23517;SDS011;11935;50.878;4.392;2022-11-15T14:06:01;10.43;;;3.20;;
23517;SDS011;11935;50.878;4.392;2022-11-15T14:08:28;4.82;;;1.20;;
23517;SDS011;11935;50.878;4.392;2022-11-15T14:11:13;2.50;;;0.98;;
23517;SDS011;11935;50.878;4.392;2022-11-15T14:13:40;2.80;;;1.05;;
23517;SDS011;11935;50.878;4.392;2022-11-15T14:16:17;2.10;;;1.20;;
23517;SDS011;11935;50.878;4.392;2022-11-15T14:21:13;2.30;;;1.13;;
23517;SDS011;11935;50.878;4.392;2022-11-15T14:23:39;3.90;;;1.30;;
23517;SDS011;11935;50.878;4.392;2022-11-15T14:26:05;2.67;;;0.88;;
23517;SDS011;11935;50.878;4.392;2022-11-15T14:28:33;5.03;;;1.67;;
23517;SDS011;11935;50.878;4.392;2022-11-15T14:31:06;2.83;;;1.23;;
23517;SDS011;11935;50.878;4.392;2022-11-15T14:33:36;2.55;;;1.20;;
23517;SDS011;11935;50.878;4.392;2022-11-15T14:36:19;6.15;;;1.35;;
23517;SDS011;11935;50.878;4.392;2022-11-15T14:38:46;1.95;;;1.02;;
23517;SDS011;11935;50.878;4.392;2022-11-15T14:41:19;3.20;;;1.50;;
23517;SDS011;11935;50.878;4.392;2022-11-15T14:43:46;2.53;;;1.13;;
23517;SDS011;11935;50.878;4.392;2022-11-15T14:46:12;3.53;;;1.40;;
23517;SDS011;11935;50.878;4.392;2022-11-15T14:48:38;5.32;;;1.80;;
23517;SDS011;11935;50.878;4.392;2022-11-15T14:51:09;6.28;;;2.35;;
23517;SDS011;11935;50.878;4.392;2022-11-15T14:53:35;4.25;;;1.50;;
23517;SDS011;11935;50.878;4.392;2022-11-15T14:56:01;3.90;;;1.70;;
23517;SDS011;11935;50.878;4.392;2022-11-15T14:58:27;3.55;;;1.83;;
23517;SDS011;11935;50.878;4.392;2022-11-15T15:00:53;2.30;;;1.45;;
23517;SDS011;11935;50.878;4.392;2022-11-15T15:03:19;5.85;;;2.75;;
23517;SDS011;11935;50.878;4.392;2022-11-15T15:05:45;5.13;;;2.65;;
23517;SDS011;11935;50.878;4.392;2022-11-15T15:08:11;4.90;;;2.75;;
23517;SDS011;11935;50.878;4.392;2022-11-15T15:10:39;5.60;;;1.92;;
23517;SDS011;11935;50.878;4.392;2022-11-15T15:13:06;5.03;;;1.98;;
23517;SDS011;11935;50.878;4.392;2022-11-15T15:15:36;3.22;;;1.42;;
23517;SDS011;11935;50.878;4.392;2022-11-15T15:18:03;3.58;;;1.67;;
23517;SDS011;11935;50.878;4.392;2022-11-15T15:20:30;4.82;;;2.10;;
23517;SDS011;11935;50.878;4.392;2022-11-15T15:22:56;4.00;;;1.85;;
23517;SDS011;11935;50.878;4.392;2022-11-15T15:27:48;3.97;;;1.88;;
23517;SDS011;11935;50.878;4.392;2022-11-15T15:30:14;4.15;;;1.73;;
23517;SDS011;11935;50.878;4.392;2022-11-15T15:32:40;5.35;;;1.58;;
23517;SDS011;11935;50.878;4.392;2022-11-15T15:35:07;4.50;;;1.50;;
23517;SDS011;11935;50.878;4.392;2022-11-15T15:37:36;5.50;;;2.00;;
23517;SDS011;11935;50.878;4.392;2022-11-15T15:40:02;3.08;;;2.20;;
23517;SDS011;11935;50.878;4.392;2022-11-15T15:42:28;5.38;;;2.88;;
23517;SDS011;11935;50.878;4.392;2022-11-15T15:44:54;2.35;;;1.58;;
23517;SDS011;11935;50.878;4.392;2022-11-15T15:47:21;5.53;;;2.45;;
23517;SDS011;11935;50.878;4.392;2022-11-15T15:49:47;3.03;;;1.80;;
23517;SDS011;11935;50.878;4.392;2022-11-15T15:52:14;5.88;;;4.07;;
23517;SDS011;11935;50.878;4.392;2022-11-15T15:54:40;4.35;;;2.80;;
23517;SDS011;11935;50.878;4.392;2022-11-15T15:57:06;4.25;;;2.50;;
23517;SDS011;11935;50.878;4.392;2022-11-15T15:59:33;3.45;;;1.85;;
23517;SDS011;11935;50.878;4.392;2022-11-15T16:01:59;6.07;;;3.38;;
23517;SDS011;11935;50.878;4.392;2022-11-15T16:04:25;6.55;;;2.38;;
23517;SDS011;11935;50.878;4.392;2022-11-15T16:06:51;4.57;;;2.40;;
23517;SDS011;11935;50.878;4.392;2022-11-15T16:09:19;3.78;;;2.13;;
23517;SDS011;11935;50.878;4.392;2022-11-15T16:12:08;2.85;;;2.20;;
23517;SDS011;11935;50.878;4.392;2022-11-15T16:14:34;7.05;;;2.83;;
23517;SDS011;11935;50.878;4.392;2022-11-15T16:17:01;6.00;;;2.42;;
23517;SDS011;11935;50.878;4.392;2022-11-15T16:19:27;3.90;;;2.85;;
23517;SDS011;11935;50.878;4.392;2022-11-15T16:21:53;5.32;;;2.42;;
23517;SDS011;11935;50.878;4.392;2022-11-15T16:24:19;2.60;;;2.25;;
23517;SDS011;11935;50.878;4.392;2022-11-15T16:26:45;4.32;;;3.10;;
23517;SDS011;11935;50.878;4.392;2022-11-15T16:29:12;3.97;;;2.42;;
23517;SDS011;11935;50.878;4.392;2022-11-15T16:31:38;12.07;;;7.80;;
23517;SDS011;11935;50.878;4.392;2022-11-15T16:34:04;6.93;;;2.47;;
23517;SDS011;11935;50.878;4.392;2022-11-15T16:36:32;10.50;;;6.35;;
23517;SDS011;11935;50.878;4.392;2022-11-15T16:38:58;9.75;;;4.60;;
23517;SDS011;11935;50.878;4.392;2022-11-15T16:41:25;5.45;;;3.20;;
23517;SDS011;11935;50.878;4.392;2022-11-15T16:43:51;6.35;;;3.30;;
23517;SDS011;11935;50.878;4.392;2022-11-15T16:46:21;4.10;;;3.03;;
23517;SDS011;11935;50.878;4.392;2022-11-15T16:48:47;12.88;;;5.20;;
23517;SDS011;11935;50.878;4.392;2022-11-15T16:51:14;5.30;;;2.72;;